West Ashford, Connecticut
Current Conditions -  °F | °C
As of 11:52 PM on Monday 22 Dec 2014 (Local Time) from KIJD Reporting Station
Overcast Overcast  
Wind Chill: 43°   Ceiling: 1500
Heat Index: 43°   Visibility: 10mi
Dew Point: 36°   Wind: 3mph
Humidity: 76%   Direction: 80°E
Pressure: 30.26"   Gusts: NA
Location:  41.7742°N, 72.196°W
Report Text: KIJD 230452Z AUTO 08003KT 10SM OVC015 06/02 A3026 RMK AO2 SLP248 T00610022 400780011
Loading
Personal Weather Stations






























Interactive Weather Map New forecast layout! Learn more

10-Day Weather Forecast

Advertisements
Track Severe Weather on mobile